createdAt,value
2023-04-28T00:00:13.596Z,14.51
2023-04-28T00:01:13.558Z,14.54
2023-04-28T00:02:13.631Z,14.54
2023-04-28T00:03:13.615Z,14.53
2023-04-28T00:04:13.773Z,14.47
2023-04-28T00:05:13.599Z,14.45
2023-04-28T00:06:13.397Z,14.48
2023-04-28T00:07:13.359Z,14.51
2023-04-28T00:08:13.327Z,14.53
2023-04-28T00:09:13.297Z,14.43
2023-04-28T00:10:13.262Z,14.40
2023-04-28T00:11:13.233Z,14.41
2023-04-28T00:12:13.209Z,14.41
2023-04-28T00:13:13.163Z,14.43
2023-04-28T00:14:13.191Z,14.37
2023-04-28T00:15:13.091Z,14.45
2023-04-28T00:16:13.112Z,14.37
2023-04-28T00:17:13.061Z,14.32
2023-04-28T00:18:13.012Z,14.36
2023-04-28T00:19:12.957Z,14.40
2023-04-28T00:20:12.921Z,14.37
2023-04-28T00:21:12.894Z,14.36
2023-04-28T00:22:12.866Z,14.41
2023-04-28T00:23:12.824Z,14.26
2023-04-28T00:24:12.851Z,14.37
2023-04-28T00:25:12.774Z,14.32
2023-04-28T00:26:12.718Z,14.33
2023-04-28T00:27:12.686Z,14.29
2023-04-28T00:28:16.059Z,14.28
2023-04-28T00:29:12.658Z,14.22
2023-04-28T00:30:12.611Z,14.25
2023-04-28T00:31:12.587Z,14.20
2023-04-28T00:32:12.543Z,14.18
2023-04-28T00:33:12.482Z,14.17
2023-04-28T00:34:12.448Z,14.17
2023-04-28T00:35:12.460Z,14.14
2023-04-28T00:36:12.379Z,14.18
2023-04-28T00:37:12.347Z,14.08
2023-04-28T00:38:12.309Z,14.12
2023-04-28T00:39:12.277Z,14.15
2023-04-28T00:40:12.259Z,14.07
2023-04-28T00:41:12.211Z,14.05
2023-04-28T00:42:12.182Z,14.10
2023-04-28T00:43:12.158Z,14.08
2023-04-28T00:44:12.108Z,14.00
2023-04-28T00:45:12.077Z,14.08
2023-04-28T00:46:12.093Z,14.10
2023-04-28T00:47:12.007Z,14.11
2023-04-28T00:48:11.972Z,14.11
2023-04-28T00:49:11.938Z,14.07
2023-04-28T00:50:11.908Z,14.04
2023-04-28T00:51:11.885Z,14.10
2023-04-28T00:52:11.846Z,14.14
2023-04-28T00:53:11.805Z,14.11
2023-04-28T00:54:11.763Z,14.08
2023-04-28T00:55:11.739Z,14.12
2023-04-28T00:56:11.707Z,14.12
2023-04-28T00:57:11.665Z,14.17
2023-04-28T00:58:11.628Z,14.17
2023-04-28T00:59:11.600Z,14.20
2023-04-28T01:00:11.577Z,14.14
2023-04-28T01:01:11.578Z,14.08
2023-04-28T01:02:11.506Z,14.14
2023-04-28T01:03:11.644Z,14.14
2023-04-28T01:04:11.593Z,14.18
2023-04-28T01:05:11.396Z,14.14
2023-04-28T01:06:11.359Z,14.11
2023-04-28T01:07:11.327Z,14.18
2023-04-28T01:08:11.291Z,14.12
2023-04-28T01:09:11.255Z,14.10
2023-04-28T01:10:11.218Z,14.12
2023-04-28T01:11:11.189Z,14.15
2023-04-28T01:12:11.152Z,14.11
2023-04-28T01:13:11.134Z,14.11
2023-04-28T01:14:11.087Z,14.15
2023-04-28T01:15:11.059Z,14.12
2023-04-28T01:16:11.050Z,14.11
2023-04-28T01:17:10.982Z,14.11
2023-04-28T01:18:10.965Z,14.11
2023-04-28T01:19:10.912Z,14.14
2023-04-28T01:20:10.884Z,14.11
2023-04-28T01:21:10.847Z,14.08
2023-04-28T01:22:10.824Z,14.10
2023-04-28T01:23:10.787Z,14.08
2023-04-28T01:24:10.757Z,14.07
2023-04-28T01:25:10.714Z,14.00
2023-04-28T01:26:10.681Z,14.04
2023-04-28T01:27:10.646Z,14.00
2023-04-28T01:28:10.617Z,14.04
2023-04-28T01:29:10.577Z,14.04
2023-04-28T01:30:10.540Z,14.00
2023-04-28T01:31:10.537Z,13.99
2023-04-28T01:32:10.480Z,13.93
2023-04-28T01:33:10.475Z,14.04
2023-04-28T01:34:10.404Z,13.87
2023-04-28T01:35:10.374Z,13.95
2023-04-28T01:36:10.340Z,13.95
2023-04-28T01:37:10.328Z,13.93
2023-04-28T01:38:10.266Z,13.87
2023-04-28T01:39:10.239Z,13.92
2023-04-28T01:40:10.203Z,13.93
2023-04-28T01:41:10.165Z,13.93
2023-04-28T01:42:10.129Z,13.93
2023-04-28T01:43:10.107Z,13.87
2023-04-28T01:44:10.073Z,13.95
2023-04-28T01:45:10.031Z,13.90
2023-04-28T01:46:10.074Z,13.87
2023-04-28T01:47:09.962Z,13.90
2023-04-28T01:48:09.944Z,13.95
2023-04-28T01:49:09.892Z,13.93
2023-04-28T01:50:09.858Z,13.89
2023-04-28T01:51:09.826Z,13.96
2023-04-28T01:52:09.802Z,13.90
2023-04-28T01:53:09.759Z,13.95
2023-04-28T01:54:09.723Z,13.89
2023-04-28T01:55:09.707Z,13.93
2023-04-28T01:56:09.669Z,13.96
2023-04-28T01:57:09.642Z,13.95
2023-04-28T01:58:09.581Z,13.97
2023-04-28T01:59:09.555Z,13.95
2023-04-28T02:00:09.510Z,13.87
2023-04-28T02:01:09.513Z,13.93
2023-04-28T02:02:09.449Z,13.90
2023-04-28T02:03:09.449Z,13.97
2023-04-28T02:04:09.719Z,13.90
2023-04-28T02:05:09.346Z,13.95
2023-04-28T02:06:09.309Z,13.93
2023-04-28T02:07:09.291Z,13.90
2023-04-28T02:08:09.241Z,13.93
2023-04-28T02:09:09.216Z,13.92
2023-04-28T02:10:09.269Z,13.93
2023-04-28T02:11:09.135Z,13.90
2023-04-28T02:12:09.106Z,13.93
2023-04-28T02:13:09.068Z,13.87
2023-04-28T02:14:09.040Z,13.92
2023-04-28T02:15:09.004Z,13.77
2023-04-28T02:16:09.018Z,13.92
2023-04-28T02:17:08.937Z,13.83
2023-04-28T02:18:08.922Z,13.86
2023-04-28T02:19:08.863Z,13.81
2023-04-28T02:20:08.882Z,13.83
2023-04-28T02:21:08.794Z,13.81
2023-04-28T02:22:08.759Z,13.90
2023-04-28T02:23:08.738Z,13.87
2023-04-28T02:24:08.687Z,13.86
2023-04-28T02:25:08.660Z,13.89
2023-04-28T02:26:08.618Z,13.83
2023-04-28T02:27:08.593Z,13.92
2023-04-28T02:28:08.554Z,13.92
2023-04-28T02:29:08.522Z,13.92
2023-04-28T02:30:08.489Z,13.89
2023-04-28T02:31:08.481Z,13.95
2023-04-28T02:32:08.419Z,13.93
2023-04-28T02:33:08.406Z,13.92
2023-04-28T02:34:08.351Z,13.89
2023-04-28T02:35:08.314Z,13.95
2023-04-28T02:36:08.290Z,13.93
2023-04-28T02:37:08.253Z,13.96
2023-04-28T02:38:08.215Z,13.90
2023-04-28T02:39:08.174Z,13.95
2023-04-28T02:40:08.149Z,13.89
2023-04-28T02:41:08.110Z,13.95
2023-04-28T02:42:08.078Z,13.93
2023-04-28T02:43:08.043Z,13.95
2023-04-28T02:44:08.006Z,13.92
2023-04-28T02:45:07.973Z,13.92
2023-04-28T02:46:08.014Z,13.87
2023-04-28T02:47:07.960Z,13.95
2023-04-28T02:48:07.890Z,13.90
2023-04-28T02:49:07.851Z,13.96
2023-04-28T02:50:07.811Z,13.90
2023-04-28T02:51:07.773Z,13.81
2023-04-28T02:52:07.734Z,13.77
2023-04-28T02:53:07.699Z,13.90
2023-04-28T02:54:07.663Z,13.78
2023-04-28T02:55:07.638Z,13.85
2023-04-28T02:56:07.610Z,13.78
2023-04-28T02:57:07.564Z,13.79
2023-04-28T02:58:07.525Z,13.87
2023-04-28T02:59:07.499Z,13.90
2023-04-28T03:00:07.474Z,13.92
2023-04-28T03:01:07.462Z,13.87
2023-04-28T03:02:07.392Z,13.81
2023-04-28T03:03:07.529Z,13.79
2023-04-28T03:04:07.552Z,13.89
2023-04-28T03:05:07.291Z,13.79
2023-04-28T03:06:07.258Z,13.86
2023-04-28T03:07:07.255Z,13.78
2023-04-28T03:08:07.247Z,13.83
2023-04-28T03:09:07.161Z,13.85
2023-04-28T03:10:07.119Z,13.86
2023-04-28T03:11:07.095Z,13.86
2023-04-28T03:12:07.048Z,13.83
2023-04-28T03:13:07.056Z,13.77
2023-04-28T03:14:06.980Z,13.79
2023-04-28T03:15:06.954Z,13.89
2023-04-28T03:16:06.963Z,13.75
2023-04-28T03:17:06.875Z,13.75
2023-04-28T03:18:06.917Z,13.75
2023-04-28T03:19:06.807Z,13.78
2023-04-28T03:20:06.770Z,13.72
2023-04-28T03:21:06.739Z,13.67
2023-04-28T03:22:06.704Z,13.70
2023-04-28T03:23:06.672Z,13.79
2023-04-28T03:24:06.642Z,13.68
2023-04-28T03:25:06.610Z,13.71
2023-04-28T03:26:06.577Z,13.65
2023-04-28T03:27:06.539Z,13.60
2023-04-28T03:28:06.504Z,13.63
2023-04-28T03:29:06.469Z,13.63
2023-04-28T03:30:06.430Z,13.62
2023-04-28T03:31:06.398Z,13.71
2023-04-28T03:32:06.387Z,13.63
2023-04-28T03:33:06.369Z,13.65
2023-04-28T03:34:06.294Z,13.72
2023-04-28T03:35:06.262Z,13.60
2023-04-28T03:36:06.224Z,13.67
2023-04-28T03:37:06.191Z,13.63
2023-04-28T03:38:06.155Z,13.57
2023-04-28T03:39:06.120Z,13.63
2023-04-28T03:40:06.086Z,13.65
2023-04-28T03:41:06.052Z,13.60
2023-04-28T03:42:06.014Z,13.56
2023-04-28T03:43:05.995Z,13.59
2023-04-28T03:44:05.948Z,13.56
2023-04-28T03:45:05.916Z,13.62
2023-04-28T03:46:05.887Z,13.65
2023-04-28T03:47:05.846Z,13.63
2023-04-28T03:48:05.843Z,13.57
2023-04-28T03:49:05.781Z,13.56
2023-04-28T03:50:05.761Z,13.59
2023-04-28T03:51:05.711Z,13.62
2023-04-28T03:52:05.693Z,13.59
2023-04-28T03:53:05.635Z,13.49
2023-04-28T03:54:05.602Z,13.53
2023-04-28T03:55:05.581Z,13.50
2023-04-28T03:56:05.538Z,13.56
2023-04-28T03:57:05.501Z,13.47
2023-04-28T03:58:05.467Z,13.52
2023-04-28T03:59:05.432Z,13.53
2023-04-28T04:00:05.394Z,13.56
2023-04-28T04:01:05.365Z,13.54
2023-04-28T04:02:05.359Z,13.49
2023-04-28T04:03:05.433Z,13.44
2023-04-28T04:04:05.472Z,13.50
2023-04-28T04:05:05.350Z,13.49
2023-04-28T04:06:05.189Z,13.41
2023-04-28T04:07:05.163Z,13.41
2023-04-28T04:08:05.119Z,13.38
2023-04-28T04:09:05.090Z,13.30
2023-04-28T04:10:05.053Z,13.31
2023-04-28T04:11:05.023Z,13.38
2023-04-28T04:12:04.990Z,13.30
2023-04-28T04:13:04.948Z,13.30
2023-04-28T04:14:04.912Z,13.30
2023-04-28T04:15:04.938Z,13.41
2023-04-28T04:16:04.906Z,13.35
2023-04-28T04:17:04.820Z,13.37
2023-04-28T04:18:04.811Z,13.30
2023-04-28T04:19:04.746Z,13.35
2023-04-28T04:20:04.719Z,13.30
2023-04-28T04:21:04.681Z,13.41
2023-04-28T04:22:04.637Z,13.39
2023-04-28T04:23:04.604Z,13.39
2023-04-28T04:24:04.579Z,13.44
2023-04-28T04:25:04.538Z,13.38
2023-04-28T04:26:04.500Z,13.42
2023-04-28T04:27:04.464Z,13.42
2023-04-28T04:28:04.442Z,13.38
2023-04-28T04:29:04.402Z,13.46
2023-04-28T04:30:04.363Z,13.44
2023-04-28T04:31:04.374Z,13.42
2023-04-28T04:32:04.326Z,13.44
2023-04-28T04:33:04.357Z,13.42
2023-04-28T04:34:04.228Z,13.46
2023-04-28T04:35:04.192Z,13.47
2023-04-28T04:36:04.158Z,13.44
2023-04-28T04:37:04.120Z,13.46
2023-04-28T04:38:04.088Z,13.47
2023-04-28T04:39:04.060Z,13.52
2023-04-28T04:40:04.022Z,13.46
2023-04-28T04:41:03.982Z,13.53
2023-04-28T04:42:13.380Z,13.54
2023-04-28T04:43:03.912Z,13.56
2023-04-28T04:44:03.941Z,13.53
2023-04-28T04:45:03.843Z,13.54
2023-04-28T04:46:03.834Z,13.56
2023-04-28T04:47:03.774Z,13.59
2023-04-28T04:48:03.787Z,13.50
2023-04-28T04:49:03.704Z,13.54
2023-04-28T04:50:03.686Z,13.62
2023-04-28T04:51:03.651Z,13.53
2023-04-28T04:52:03.601Z,13.54
2023-04-28T04:53:03.572Z,13.47
2023-04-28T04:54:03.543Z,13.53
2023-04-28T04:55:03.497Z,13.42
2023-04-28T04:56:03.478Z,13.41
2023-04-28T04:57:03.441Z,13.46
2023-04-28T04:58:03.397Z,13.42
2023-04-28T04:59:07.749Z,13.47
2023-04-28T05:00:03.327Z,13.54
2023-04-28T05:01:03.303Z,13.50
2023-04-28T05:02:03.294Z,13.50
2023-04-28T05:03:03.361Z,13.50
2023-04-28T05:04:03.355Z,13.47
2023-04-28T05:05:16.817Z,13.44
2023-04-28T05:06:03.147Z,13.53
2023-04-28T05:07:03.083Z,13.53
2023-04-28T05:08:03.058Z,13.47
2023-04-28T05:09:03.017Z,13.50
2023-04-28T05:10:03.003Z,13.49
2023-04-28T05:11:02.954Z,13.47
2023-04-28T05:12:02.920Z,13.44
2023-04-28T05:13:02.893Z,13.42
2023-04-28T05:14:02.850Z,13.54
2023-04-28T05:15:02.820Z,13.44
2023-04-28T05:16:02.816Z,13.44
2023-04-28T05:17:02.751Z,13.39
2023-04-28T05:18:02.726Z,13.38
2023-04-28T05:19:02.676Z,13.37
2023-04-28T05:20:02.635Z,13.33
2023-04-28T05:21:02.606Z,13.39
2023-04-28T05:22:02.579Z,13.33
2023-04-28T05:23:02.534Z,13.31
2023-04-28T05:24:02.519Z,13.35
2023-04-28T05:25:02.468Z,13.35
2023-04-28T05:26:02.440Z,13.28
2023-04-28T05:27:02.413Z,13.37
2023-04-28T05:28:02.365Z,13.39
2023-04-28T05:29:02.328Z,13.38
2023-04-28T05:30:02.300Z,13.27
2023-04-28T05:31:02.260Z,13.38
2023-04-28T05:32:02.261Z,13.31
2023-04-28T05:33:02.260Z,13.35
2023-04-28T05:34:02.212Z,13.35
2023-04-28T05:35:02.119Z,13.31
2023-04-28T05:36:02.083Z,13.28
2023-04-28T05:37:02.061Z,13.28
2023-04-28T05:38:02.023Z,13.19
2023-04-28T05:39:02.006Z,13.18
2023-04-28T05:40:01.972Z,13.23
2023-04-28T05:41:01.916Z,13.22
2023-04-28T05:42:01.876Z,13.13
2023-04-28T05:43:01.844Z,13.18
2023-04-28T05:44:01.821Z,13.20
2023-04-28T05:45:01.777Z,13.16
2023-04-28T05:46:01.796Z,13.18
2023-04-28T05:47:01.919Z,13.22
2023-04-28T05:48:01.711Z,13.23
2023-04-28T05:49:01.660Z,13.30
2023-04-28T05:50:01.596Z,13.23
2023-04-28T05:51:01.566Z,13.16
2023-04-28T05:52:01.559Z,13.27
2023-04-28T05:53:01.543Z,13.23
2023-04-28T05:54:01.470Z,13.19
2023-04-28T05:55:01.456Z,13.23
2023-04-28T05:56:01.428Z,13.22
2023-04-28T05:57:01.707Z,13.22
2023-04-28T05:58:01.319Z,13.25
2023-04-28T05:59:01.289Z,13.28
2023-04-28T06:00:01.271Z,13.28
2023-04-28T06:01:01.212Z,13.25
2023-04-28T06:02:01.219Z,13.33
2023-04-28T06:03:01.270Z,13.27
2023-04-28T06:04:01.609Z,13.30
2023-04-28T06:05:01.338Z,13.28
2023-04-28T06:06:01.089Z,13.23
2023-04-28T06:07:01.010Z,13.23
2023-04-28T06:08:00.978Z,13.23
2023-04-28T06:09:00.939Z,13.28
2023-04-28T06:10:00.917Z,13.25
2023-04-28T06:11:00.874Z,13.31
2023-04-28T06:12:00.838Z,13.33
2023-04-28T06:13:00.809Z,13.37
2023-04-28T06:14:00.763Z,13.33
2023-04-28T06:15:00.744Z,13.33
2023-04-28T06:16:00.787Z,13.27
2023-04-28T06:17:00.658Z,13.30
2023-04-28T06:18:00.690Z,13.38
2023-04-28T06:19:00.589Z,13.27
2023-04-28T06:20:00.563Z,13.41
2023-04-28T06:21:00.531Z,13.38
2023-04-28T06:22:00.491Z,13.39
2023-04-28T06:23:00.452Z,13.49
2023-04-28T06:24:00.425Z,13.46
2023-04-28T06:25:00.382Z,13.50
2023-04-28T06:26:00.358Z,13.50
2023-04-28T06:27:00.313Z,13.56
2023-04-28T06:28:00.283Z,13.56
2023-04-28T06:29:00.243Z,13.65
2023-04-28T06:30:00.211Z,13.59
2023-04-28T06:31:00.274Z,13.60
2023-04-28T06:32:00.156Z,13.62
2023-04-28T06:33:00.161Z,13.72
2023-04-28T06:34:00.082Z,13.65
2023-04-28T06:35:00.051Z,13.75
2023-04-28T06:36:00.001Z,13.74
2023-04-28T06:36:59.965Z,13.71
2023-04-28T06:37:59.931Z,13.83
2023-04-28T06:38:59.911Z,13.75
2023-04-28T06:39:59.869Z,13.79
2023-04-28T06:40:59.834Z,13.85
2023-04-28T06:41:59.792Z,13.83
2023-04-28T06:42:59.791Z,13.93
2023-04-28T06:43:59.731Z,13.86
2023-04-28T06:44:59.708Z,13.90
2023-04-28T06:45:59.660Z,14.04
2023-04-28T06:46:59.686Z,14.08
2023-04-28T06:47:59.638Z,14.10
2023-04-28T06:48:59.553Z,14.03
2023-04-28T06:49:59.521Z,14.12
2023-04-28T06:50:59.488Z,14.20
2023-04-28T06:51:59.460Z,14.20
2023-04-28T06:52:59.421Z,14.23
2023-04-28T06:53:59.380Z,14.28
2023-04-28T06:54:59.352Z,14.30
2023-04-28T06:55:59.319Z,14.29
2023-04-28T06:56:59.280Z,14.32
2023-04-28T06:57:59.249Z,14.30
2023-04-28T06:58:59.213Z,14.32
2023-04-28T06:59:59.175Z,14.30
2023-04-28T07:00:59.172Z,14.40
2023-04-28T07:01:59.170Z,14.40
2023-04-28T07:02:59.241Z,14.48
2023-04-28T07:03:59.284Z,14.47
2023-04-28T07:04:59.007Z,14.53
2023-04-28T07:05:58.973Z,14.51
2023-04-28T07:06:58.939Z,14.48
2023-04-28T07:07:58.905Z,14.51
2023-04-28T07:08:58.888Z,14.55
2023-04-28T07:09:58.838Z,14.50
2023-04-28T07:10:58.816Z,14.54
2023-04-28T07:11:58.776Z,14.55
2023-04-28T07:12:58.758Z,14.60
2023-04-28T07:13:58.705Z,14.59
2023-04-28T07:14:58.679Z,14.65
2023-04-28T07:15:58.699Z,14.60
2023-04-28T07:16:58.799Z,14.53
2023-04-28T07:17:58.633Z,14.59
2023-04-28T07:18:58.545Z,14.65
2023-04-28T07:19:58.505Z,14.60
2023-04-28T07:20:58.473Z,14.62
2023-04-28T07:21:58.435Z,14.65
2023-04-28T07:22:58.406Z,14.69
2023-04-28T07:23:58.370Z,14.65
2023-04-28T07:24:58.337Z,14.59
2023-04-28T07:25:58.298Z,14.70
2023-04-28T07:26:58.262Z,14.73
2023-04-28T07:27:58.231Z,14.68
2023-04-28T07:28:58.199Z,14.77
2023-04-28T07:29:58.288Z,14.89
2023-04-28T07:30:58.302Z,14.89
2023-04-28T07:31:58.156Z,15.06
2023-04-28T07:32:58.065Z,15.00
2023-04-28T07:33:58.024Z,15.06
2023-04-28T07:34:58.000Z,15.00
2023-04-28T07:35:57.951Z,15.11
2023-04-28T07:36:57.925Z,15.21
2023-04-28T07:37:57.915Z,15.22
2023-04-28T07:38:57.854Z,15.24
2023-04-28T07:39:57.821Z,15.33
2023-04-28T07:40:57.910Z,15.24
2023-04-28T07:41:57.758Z,15.28
2023-04-28T07:42:57.726Z,15.36
2023-04-28T07:43:57.702Z,15.39
2023-04-28T07:44:57.654Z,15.39
2023-04-28T07:45:57.665Z,15.43
2023-04-28T07:46:57.588Z,15.43
2023-04-28T07:47:57.676Z,15.42
2023-04-28T07:48:57.517Z,15.47
2023-04-28T07:49:57.484Z,15.54
2023-04-28T07:50:57.450Z,15.57
2023-04-28T07:51:57.418Z,15.65
2023-04-28T07:52:57.384Z,15.68
2023-04-28T07:53:57.367Z,15.73
2023-04-28T07:54:57.322Z,15.83
2023-04-28T07:55:57.292Z,15.94
2023-04-28T07:56:57.253Z,15.97
2023-04-28T07:57:57.217Z,16.01
2023-04-28T07:58:57.189Z,16.05
2023-04-28T07:59:57.150Z,16.15
2023-04-28T08:00:57.118Z,16.15
2023-04-28T08:01:57.101Z,16.12
2023-04-28T08:02:57.252Z,16.09
2023-04-28T08:03:57.311Z,16.24
2023-04-28T08:04:57.266Z,16.35
2023-04-28T08:05:56.996Z,16.35
2023-04-28T08:06:56.914Z,16.24
2023-04-28T08:07:56.883Z,16.33
2023-04-28T08:08:56.855Z,16.36
2023-04-28T08:09:57.371Z,16.42
2023-04-28T08:10:56.789Z,16.36
2023-04-28T08:11:56.756Z,16.42
2023-04-28T08:12:56.717Z,16.50
2023-04-28T08:13:56.697Z,16.58
2023-04-28T08:14:56.651Z,16.58
2023-04-28T08:15:56.672Z,16.66
2023-04-28T08:16:56.589Z,16.76
2023-04-28T08:17:56.589Z,16.74
2023-04-28T08:18:56.588Z,16.90
2023-04-28T08:19:56.495Z,16.91
2023-04-28T08:20:56.467Z,16.91
2023-04-28T08:21:56.429Z,16.91
2023-04-28T08:22:56.394Z,16.91
2023-04-28T08:23:56.378Z,16.94
2023-04-28T08:24:56.332Z,16.90
2023-04-28T08:25:56.296Z,16.99
2023-04-28T08:26:56.265Z,16.96
2023-04-28T08:27:57.394Z,16.91
2023-04-28T08:28:56.237Z,16.96
2023-04-28T08:29:56.190Z,16.93
2023-04-28T08:30:56.167Z,16.84
2023-04-28T08:31:56.099Z,16.96
2023-04-28T08:32:56.102Z,16.83
2023-04-28T08:33:56.031Z,16.86
2023-04-28T08:34:56.009Z,16.90
2023-04-28T08:35:55.967Z,16.91
2023-04-28T08:36:55.945Z,16.83
2023-04-28T08:37:55.901Z,16.90
2023-04-28T08:38:55.870Z,16.86
2023-04-28T08:39:55.838Z,16.90
2023-04-28T08:40:55.805Z,16.87
2023-04-28T08:41:55.770Z,16.84
2023-04-28T08:42:55.756Z,16.84
2023-04-28T08:43:55.706Z,16.84
2023-04-28T08:44:55.678Z,16.87
2023-04-28T08:45:55.642Z,16.87
2023-04-28T08:46:55.685Z,16.81
2023-04-28T08:47:55.650Z,16.83
2023-04-28T08:48:55.542Z,16.89
2023-04-28T08:49:55.515Z,16.74
2023-04-28T08:50:55.483Z,16.74
2023-04-28T08:51:55.473Z,16.78
2023-04-28T08:52:55.421Z,16.71
2023-04-28T08:54:55.423Z,16.81
2023-04-28T08:55:55.355Z,16.83
2023-04-28T08:56:55.290Z,16.74
2023-04-28T08:57:55.253Z,16.75
2023-04-28T08:58:55.338Z,16.69
2023-04-28T08:59:55.190Z,16.71
2023-04-28T09:00:55.174Z,16.75
2023-04-28T09:01:55.207Z,16.74
2023-04-28T09:02:55.169Z,16.68
2023-04-28T09:03:55.200Z,16.72
2023-04-28T09:04:55.209Z,16.65
2023-04-28T09:05:55.015Z,16.76
2023-04-28T09:06:54.984Z,16.79
2023-04-28T09:07:54.933Z,16.81
2023-04-28T09:08:54.906Z,16.81
2023-04-28T09:09:54.876Z,16.75
2023-04-28T09:10:54.828Z,16.79
2023-04-28T09:11:54.797Z,16.84
2023-04-28T09:12:54.777Z,16.79
2023-04-28T09:13:54.734Z,16.81
2023-04-28T09:14:54.704Z,16.89
2023-04-28T09:15:54.679Z,16.76
2023-04-28T09:16:54.712Z,16.90
2023-04-28T09:17:54.707Z,16.90
2023-04-28T09:18:54.576Z,16.86
2023-04-28T09:19:54.538Z,16.89
2023-04-28T09:20:54.507Z,16.78
2023-04-28T09:21:54.609Z,16.84
2023-04-28T09:22:54.501Z,16.99
2023-04-28T09:23:54.407Z,16.90
2023-04-28T09:24:54.379Z,16.94
2023-04-28T09:25:54.356Z,16.91
2023-04-28T09:26:55.688Z,16.97
2023-04-28T09:27:54.279Z,17.01
2023-04-28T09:28:54.250Z,16.97
2023-04-28T09:29:54.220Z,16.97
2023-04-28T09:30:54.199Z,16.96
2023-04-28T09:31:54.228Z,16.97
2023-04-28T09:32:54.163Z,17.01
2023-04-28T09:33:54.085Z,16.97
2023-04-28T09:34:54.208Z,17.04
2023-04-28T09:35:54.032Z,17.02
2023-04-28T09:36:54.000Z,17.01
2023-04-28T09:37:53.997Z,16.97
2023-04-28T09:38:55.077Z,16.99
2023-04-28T09:39:53.916Z,16.66
2023-04-28T09:40:53.877Z,16.71
2023-04-28T09:41:53.840Z,16.74
2023-04-28T09:42:53.796Z,16.72
2023-04-28T09:43:53.768Z,16.74
2023-04-28T09:44:53.742Z,16.74
2023-04-28T09:45:53.811Z,16.65
2023-04-28T09:46:53.672Z,16.57
2023-04-28T09:47:53.697Z,16.58
2023-04-28T09:48:53.601Z,16.57
2023-04-28T09:49:53.592Z,16.51
2023-04-28T09:50:53.540Z,16.61
2023-04-28T09:51:53.505Z,16.53
2023-04-28T09:52:53.478Z,16.43
2023-04-28T09:53:53.437Z,16.46
2023-04-28T09:54:53.408Z,16.36
2023-04-28T09:55:53.375Z,16.12
2023-04-28T09:56:53.342Z,15.97
2023-04-28T09:57:53.307Z,16.08
2023-04-28T09:58:53.276Z,16.12
2023-04-28T09:59:53.241Z,16.15
2023-04-28T10:00:53.238Z,16.17
2023-04-28T10:01:53.377Z,16.23
2023-04-28T10:02:53.318Z,16.26
2023-04-28T10:03:53.186Z,16.35
2023-04-28T10:04:53.247Z,16.28
2023-04-28T10:05:53.050Z,16.33
2023-04-28T10:06:53.010Z,16.43
2023-04-28T10:07:52.977Z,16.38
2023-04-28T10:08:52.952Z,16.43
2023-04-28T10:09:52.906Z,16.41
2023-04-28T10:10:52.877Z,16.42
2023-04-28T10:11:52.850Z,16.43
2023-04-28T10:12:52.812Z,16.49
2023-04-28T10:13:52.779Z,16.57
2023-04-28T10:14:52.754Z,16.69
2023-04-28T10:15:52.745Z,16.74
2023-04-28T10:16:52.687Z,16.66
2023-04-28T10:17:52.699Z,16.74
2023-04-28T10:18:52.621Z,16.69
2023-04-28T10:19:52.580Z,16.66
2023-04-28T10:20:52.550Z,16.76
2023-04-28T10:21:52.522Z,16.87
2023-04-28T10:22:52.495Z,16.93
2023-04-28T10:23:52.461Z,16.90
2023-04-28T10:24:52.421Z,16.91
2023-04-28T10:25:52.385Z,16.90
2023-04-28T10:26:52.354Z,16.91
2023-04-28T10:27:52.348Z,16.91
2023-04-28T10:28:52.308Z,16.86
2023-04-28T10:29:52.289Z,16.94
2023-04-28T10:30:52.248Z,16.99
2023-04-28T10:31:52.200Z,16.99
2023-04-28T10:32:52.183Z,17.06
2023-04-28T10:33:52.133Z,16.99
2023-04-28T10:34:52.099Z,17.04
2023-04-28T10:35:52.072Z,16.99
2023-04-28T10:36:52.036Z,17.04
2023-04-28T10:37:52.004Z,16.97
2023-04-28T10:38:51.965Z,17.06
2023-04-28T10:39:51.930Z,16.97
2023-04-28T10:40:51.908Z,17.08
2023-04-28T10:41:51.872Z,17.06
2023-04-28T10:42:51.859Z,17.06
2023-04-28T10:43:51.814Z,17.06
2023-04-28T10:44:51.776Z,17.09
2023-04-28T10:45:55.319Z,17.19
2023-04-28T10:46:51.791Z,17.23
2023-04-28T10:47:51.777Z,17.34
2023-04-28T10:48:51.650Z,17.33
2023-04-28T10:49:51.613Z,17.45
2023-04-28T10:50:51.585Z,17.60
2023-04-28T10:51:51.556Z,17.74
2023-04-28T10:52:51.539Z,17.76
2023-04-28T10:53:51.486Z,17.82
2023-04-28T10:54:51.458Z,17.87
2023-04-28T10:55:51.419Z,17.86
2023-04-28T10:56:51.390Z,17.86
2023-04-28T10:57:51.360Z,17.98
2023-04-28T10:58:51.329Z,18.13
2023-04-28T10:59:51.297Z,17.92
2023-04-28T11:00:51.265Z,17.97
2023-04-28T11:01:51.298Z,18.05
2023-04-28T11:02:51.398Z,18.29
2023-04-28T11:03:51.573Z,18.33
2023-04-28T11:04:51.281Z,18.40
2023-04-28T11:05:51.102Z,18.31
2023-04-28T11:06:51.078Z,18.13
2023-04-28T11:07:51.037Z,18.03
2023-04-28T11:08:51.005Z,18.15
2023-04-28T11:09:50.980Z,18.11
2023-04-28T11:10:50.947Z,18.08
2023-04-28T11:11:50.919Z,18.13
2023-04-28T11:12:50.885Z,18.16
2023-04-28T11:13:50.862Z,18.22
2023-04-28T11:14:50.818Z,18.41
2023-04-28T11:15:50.810Z,18.63
2023-04-28T11:16:51.003Z,18.73
2023-04-28T11:17:50.796Z,18.83
2023-04-28T11:18:52.743Z,18.75
2023-04-28T11:19:50.684Z,18.96
2023-04-28T11:20:50.637Z,18.88
2023-04-28T11:21:50.602Z,18.88
2023-04-28T11:22:50.589Z,19.12
2023-04-28T11:23:50.539Z,19.09
2023-04-28T11:24:51.874Z,19.08
2023-04-28T11:25:50.478Z,19.09
2023-04-28T11:26:50.440Z,18.92
2023-04-28T11:27:50.411Z,18.95
2023-04-28T11:28:50.391Z,19.09
2023-04-28T11:29:50.356Z,19.08
2023-04-28T11:30:51.268Z,19.07
2023-04-28T11:31:50.314Z,19.08
2023-04-28T11:32:50.300Z,18.80
2023-04-28T11:33:50.233Z,18.84
2023-04-28T11:34:50.203Z,18.92
2023-04-28T11:35:50.170Z,19.08
2023-04-28T11:36:50.453Z,19.21
2023-04-28T11:37:50.110Z,19.37
2023-04-28T11:38:50.096Z,19.39
2023-04-28T11:39:50.049Z,19.41
2023-04-28T11:40:50.027Z,19.41
2023-04-28T11:41:49.989Z,19.39
2023-04-28T11:42:49.963Z,19.59
2023-04-28T11:43:49.922Z,19.85
2023-04-28T11:44:49.896Z,19.96
2023-04-28T11:45:49.908Z,19.88
2023-04-28T11:46:49.846Z,19.91
2023-04-28T11:47:49.848Z,20.04
2023-04-28T11:48:49.785Z,20.07
2023-04-28T11:49:49.757Z,19.96
2023-04-28T11:50:49.725Z,19.62
2023-04-28T11:51:49.696Z,19.54
2023-04-28T11:52:50.990Z,19.63
2023-04-28T11:53:49.627Z,19.63
2023-04-28T11:54:49.608Z,19.55
2023-04-28T11:55:49.567Z,19.74
2023-04-28T11:56:49.541Z,19.79
2023-04-28T11:57:49.518Z,19.85
2023-04-28T11:58:49.483Z,19.67
2023-04-28T11:59:49.945Z,19.91
2023-04-28T12:00:49.420Z,20.10
2023-04-28T12:01:49.387Z,20.34
2023-04-28T12:02:49.464Z,20.62
2023-04-28T12:03:49.448Z,20.96
2023-04-28T12:04:49.302Z,21.07
2023-04-28T12:05:49.309Z,21.02
2023-04-28T12:06:49.246Z,21.06
2023-04-28T12:07:49.217Z,21.07
2023-04-28T12:08:49.190Z,21.27
2023-04-28T12:09:49.165Z,21.51
2023-04-28T12:10:49.134Z,21.09
2023-04-28T12:11:49.101Z,20.90
2023-04-28T12:12:52.060Z,21.09
2023-04-28T12:13:49.042Z,21.43
2023-04-28T12:14:49.012Z,21.85
2023-04-28T12:15:49.034Z,22.06
2023-04-28T12:16:48.967Z,22.36
2023-04-28T12:17:48.956Z,22.14
2023-04-28T12:18:48.901Z,22.00
2023-04-28T12:19:48.871Z,22.07
2023-04-28T12:20:48.848Z,22.17
2023-04-28T12:21:48.817Z,22.39
2023-04-28T12:22:48.798Z,22.02
2023-04-28T12:23:48.760Z,21.98
2023-04-28T12:24:48.740Z,22.15
2023-04-28T12:25:48.714Z,22.54
2023-04-28T12:26:48.777Z,22.73
2023-04-28T12:27:48.650Z,22.80
2023-04-28T12:28:48.636Z,22.76
2023-04-28T12:29:48.606Z,22.90
2023-04-28T12:30:48.576Z,23.32
2023-04-28T12:31:48.595Z,23.69
2023-04-28T12:32:48.559Z,23.21
2023-04-28T12:33:48.493Z,23.23
2023-04-28T12:34:48.464Z,23.20
2023-04-28T12:35:48.436Z,23.36
2023-04-28T12:36:48.410Z,23.20
2023-04-28T12:37:48.382Z,23.12
2023-04-28T12:38:48.360Z,22.85
2023-04-28T12:39:48.338Z,22.73
2023-04-28T12:40:48.306Z,23.15
2023-04-28T12:41:48.283Z,23.83
2023-04-28T12:42:48.261Z,24.03
2023-04-28T12:43:48.234Z,23.95
2023-04-28T12:44:48.201Z,23.51
2023-04-28T12:45:48.263Z,23.77
2023-04-28T12:46:48.153Z,23.78
2023-04-28T12:47:48.231Z,23.92
2023-04-28T12:48:48.090Z,23.98
2023-04-28T12:49:48.067Z,24.01
2023-04-28T12:50:48.051Z,24.20
2023-04-28T12:51:48.024Z,23.87
2023-04-28T12:52:47.987Z,23.93